sensor_id;sensor_type;location;lat;lon;timestamp;P1;durP1;ratioP1;P2;durP2;ratioP2
20101;SDS011;10210;52.284;9.892;2023-04-01T00:01:00;8.67;;;2.03;;
20101;SDS011;10210;52.284;9.892;2023-04-01T00:03:28;7.10;;;1.73;;
20101;SDS011;10210;52.284;9.892;2023-04-01T00:05:55;6.33;;;1.70;;
20101;SDS011;10210;52.284;9.892;2023-04-01T00:08:23;7.50;;;2.13;;
20101;SDS011;10210;52.284;9.892;2023-04-01T00:10:51;8.30;;;2.00;;
20101;SDS011;10210;52.284;9.892;2023-04-01T00:13:18;6.27;;;1.63;;
20101;SDS011;10210;52.284;9.892;2023-04-01T00:15:44;11.47;;;2.23;;
20101;SDS011;10210;52.284;9.892;2023-04-01T00:18:11;11.47;;;2.20;;
20101;SDS011;10210;52.284;9.892;2023-04-01T00:20:37;8.80;;;1.67;;
20101;SDS011;10210;52.284;9.892;2023-04-01T00:23:03;6.93;;;1.80;;
20101;SDS011;10210;52.284;9.892;2023-04-01T00:25:30;8.60;;;1.93;;
20101;SDS011;10210;52.284;9.892;2023-04-01T00:27:55;7.40;;;1.60;;
20101;SDS011;10210;52.284;9.892;2023-04-01T00:30:21;7.53;;;1.60;;
20101;SDS011;10210;52.284;9.892;2023-04-01T00:32:50;6.27;;;1.70;;
20101;SDS011;10210;52.284;9.892;2023-04-01T00:35:17;6.37;;;1.80;;
20101;SDS011;10210;52.284;9.892;2023-04-01T00:37:43;8.23;;;1.77;;
20101;SDS011;10210;52.284;9.892;2023-04-01T00:40:20;6.90;;;1.70;;
20101;SDS011;10210;52.284;9.892;2023-04-01T00:42:55;4.83;;;1.60;;
20101;SDS011;10210;52.284;9.892;2023-04-01T00:47:54;7.50;;;1.63;;
20101;SDS011;10210;52.284;9.892;2023-04-01T00:50:22;7.97;;;1.77;;
20101;SDS011;10210;52.284;9.892;2023-04-01T00:52:50;6.33;;;1.87;;
20101;SDS011;10210;52.284;9.892;2023-04-01T00:55:17;7.37;;;1.90;;
20101;SDS011;10210;52.284;9.892;2023-04-01T00:57:46;6.53;;;1.80;;
20101;SDS011;10210;52.284;9.892;2023-04-01T01:00:15;10.97;;;2.07;;
20101;SDS011;10210;52.284;9.892;2023-04-01T01:02:43;8.23;;;1.80;;
20101;SDS011;10210;52.284;9.892;2023-04-01T01:05:14;7.43;;;1.47;;
20101;SDS011;10210;52.284;9.892;2023-04-01T01:07:52;6.17;;;1.70;;
20101;SDS011;10210;52.284;9.892;2023-04-01T01:10:46;6.37;;;1.70;;
20101;SDS011;10210;52.284;9.892;2023-04-01T01:22:00;5.70;;;1.47;;
20101;SDS011;10210;52.284;9.892;2023-04-01T01:28:13;8.63;;;1.40;;
20101;SDS011;10210;52.284;9.892;2023-04-01T01:31:11;6.83;;;1.30;;
20101;SDS011;10210;52.284;9.892;2023-04-01T01:33:47;7.83;;;1.37;;
20101;SDS011;10210;52.284;9.892;2023-04-01T01:36:56;3.63;;;1.07;;
20101;SDS011;10210;52.284;9.892;2023-04-01T01:39:30;4.97;;;1.20;;
20101;SDS011;10210;52.284;9.892;2023-04-01T01:42:01;5.10;;;1.30;;
20101;SDS011;10210;52.284;9.892;2023-04-01T01:44:32;5.23;;;1.10;;
20101;SDS011;10210;52.284;9.892;2023-04-01T01:47:00;2.67;;;1.23;;
20101;SDS011;10210;52.284;9.892;2023-04-01T01:49:27;3.53;;;1.10;;
20101;SDS011;10210;52.284;9.892;2023-04-01T01:51:57;5.47;;;1.40;;
20101;SDS011;10210;52.284;9.892;2023-04-01T01:54:23;3.57;;;1.10;;
20101;SDS011;10210;52.284;9.892;2023-04-01T01:56:49;6.10;;;1.63;;
20101;SDS011;10210;52.284;9.892;2023-04-01T01:59:31;5.83;;;1.70;;
20101;SDS011;10210;52.284;9.892;2023-04-01T02:02:03;2.83;;;1.40;;
20101;SDS011;10210;52.284;9.892;2023-04-01T02:04:34;4.87;;;1.10;;
20101;SDS011;10210;52.284;9.892;2023-04-01T02:07:07;8.57;;;1.73;;
20101;SDS011;10210;52.284;9.892;2023-04-01T02:09:40;9.07;;;2.53;;
20101;SDS011;10210;52.284;9.892;2023-04-01T02:12:08;13.00;;;4.17;;
20101;SDS011;10210;52.284;9.892;2023-04-01T02:14:39;13.03;;;3.80;;
20101;SDS011;10210;52.284;9.892;2023-04-01T02:17:40;10.27;;;3.17;;
20101;SDS011;10210;52.284;9.892;2023-04-01T02:20:12;8.93;;;2.60;;
20101;SDS011;10210;52.284;9.892;2023-04-01T02:22:45;7.37;;;1.90;;
20101;SDS011;10210;52.284;9.892;2023-04-01T02:25:18;7.73;;;1.80;;
20101;SDS011;10210;52.284;9.892;2023-04-01T02:27:49;5.30;;;1.30;;
20101;SDS011;10210;52.284;9.892;2023-04-01T02:30:17;5.37;;;1.30;;
20101;SDS011;10210;52.284;9.892;2023-04-01T02:32:43;4.97;;;1.20;;
20101;SDS011;10210;52.284;9.892;2023-04-01T02:35:12;4.97;;;1.30;;
20101;SDS011;10210;52.284;9.892;2023-04-01T02:37:40;3.03;;;1.20;;
20101;SDS011;10210;52.284;9.892;2023-04-01T02:40:14;3.37;;;0.97;;
20101;SDS011;10210;52.284;9.892;2023-04-01T02:42:41;3.33;;;1.10;;
20101;SDS011;10210;52.284;9.892;2023-04-01T02:45:07;4.53;;;1.10;;
20101;SDS011;10210;52.284;9.892;2023-04-01T02:47:34;3.53;;;1.10;;
20101;SDS011;10210;52.284;9.892;2023-04-01T02:49:59;4.27;;;1.10;;
20101;SDS011;10210;52.284;9.892;2023-04-01T02:52:25;6.57;;;1.43;;
20101;SDS011;10210;52.284;9.892;2023-04-01T02:54:55;3.23;;;1.20;;
20101;SDS011;10210;52.284;9.892;2023-04-01T02:57:22;7.40;;;1.20;;
20101;SDS011;10210;52.284;9.892;2023-04-01T02:59:48;4.20;;;1.30;;
20101;SDS011;10210;52.284;9.892;2023-04-01T03:02:14;4.33;;;1.20;;
20101;SDS011;10210;52.284;9.892;2023-04-01T03:04:40;6.07;;;1.30;;
20101;SDS011;10210;52.284;9.892;2023-04-01T03:07:06;7.30;;;1.33;;
20101;SDS011;10210;52.284;9.892;2023-04-01T03:09:31;6.00;;;1.33;;
20101;SDS011;10210;52.284;9.892;2023-04-01T03:11:57;7.07;;;1.57;;
20101;SDS011;10210;52.284;9.892;2023-04-01T03:14:23;5.30;;;1.50;;
20101;SDS011;10210;52.284;9.892;2023-04-01T03:16:48;3.37;;;1.30;;
20101;SDS011;10210;52.284;9.892;2023-04-01T03:19:14;5.47;;;1.50;;
20101;SDS011;10210;52.284;9.892;2023-04-01T03:21:40;3.90;;;1.37;;
20101;SDS011;10210;52.284;9.892;2023-04-01T03:24:05;3.80;;;1.30;;
20101;SDS011;10210;52.284;9.892;2023-04-01T03:26:32;5.20;;;1.30;;
20101;SDS011;10210;52.284;9.892;2023-04-01T03:28:58;3.73;;;1.10;;
20101;SDS011;10210;52.284;9.892;2023-04-01T03:31:24;5.03;;;1.30;;
20101;SDS011;10210;52.284;9.892;2023-04-01T03:33:50;3.77;;;1.07;;
20101;SDS011;10210;52.284;9.892;2023-04-01T03:36:16;4.07;;;1.20;;
20101;SDS011;10210;52.284;9.892;2023-04-01T03:38:43;4.10;;;1.20;;
20101;SDS011;10210;52.284;9.892;2023-04-01T03:41:16;4.47;;;1.20;;
20101;SDS011;10210;52.284;9.892;2023-04-01T03:43:43;2.27;;;1.10;;
20101;SDS011;10210;52.284;9.892;2023-04-01T03:46:09;5.40;;;0.93;;
20101;SDS011;10210;52.284;9.892;2023-04-01T03:48:35;2.83;;;1.30;;
20101;SDS011;10210;52.284;9.892;2023-04-01T03:51:01;5.10;;;1.40;;
20101;SDS011;10210;52.284;9.892;2023-04-01T03:53:31;4.20;;;1.10;;
20101;SDS011;10210;52.284;9.892;2023-04-01T03:55:57;5.83;;;1.40;;
20101;SDS011;10210;52.284;9.892;2023-04-01T03:58:22;5.17;;;1.60;;
20101;SDS011;10210;52.284;9.892;2023-04-01T04:00:48;5.63;;;1.40;;
20101;SDS011;10210;52.284;9.892;2023-04-01T04:03:14;5.83;;;1.20;;
20101;SDS011;10210;52.284;9.892;2023-04-01T04:05:45;1.83;;;0.90;;
20101;SDS011;10210;52.284;9.892;2023-04-01T04:08:15;3.20;;;1.10;;
20101;SDS011;10210;52.284;9.892;2023-04-01T04:10:41;5.03;;;1.30;;
20101;SDS011;10210;52.284;9.892;2023-04-01T04:13:07;4.70;;;1.20;;
20101;SDS011;10210;52.284;9.892;2023-04-01T04:15:33;2.70;;;1.03;;
20101;SDS011;10210;52.284;9.892;2023-04-01T04:17:59;3.80;;;1.00;;
20101;SDS011;10210;52.284;9.892;2023-04-01T04:20:25;3.63;;;1.10;;
20101;SDS011;10210;52.284;9.892;2023-04-01T04:22:51;5.70;;;1.03;;
20101;SDS011;10210;52.284;9.892;2023-04-01T04:25:16;3.10;;;1.03;;
20101;SDS011;10210;52.284;9.892;2023-04-01T04:27:42;4.27;;;1.10;;
20101;SDS011;10210;52.284;9.892;2023-04-01T04:30:08;5.90;;;1.33;;
20101;SDS011;10210;52.284;9.892;2023-04-01T04:32:35;2.83;;;0.80;;
20101;SDS011;10210;52.284;9.892;2023-04-01T04:35:01;4.30;;;1.07;;
20101;SDS011;10210;52.284;9.892;2023-04-01T04:37:31;3.50;;;0.90;;
20101;SDS011;10210;52.284;9.892;2023-04-01T04:39:57;3.77;;;0.97;;
20101;SDS011;10210;52.284;9.892;2023-04-01T04:42:22;1.23;;;0.90;;
20101;SDS011;10210;52.284;9.892;2023-04-01T04:44:48;5.47;;;1.40;;
20101;SDS011;10210;52.284;9.892;2023-04-01T04:47:13;4.03;;;0.97;;
20101;SDS011;10210;52.284;9.892;2023-04-01T04:49:39;3.60;;;0.97;;
20101;SDS011;10210;52.284;9.892;2023-04-01T04:52:05;3.63;;;1.20;;
20101;SDS011;10210;52.284;9.892;2023-04-01T04:54:31;1.77;;;0.90;;
20101;SDS011;10210;52.284;9.892;2023-04-01T04:56:56;5.13;;;1.20;;
20101;SDS011;10210;52.284;9.892;2023-04-01T04:59:22;2.83;;;1.07;;
20101;SDS011;10210;52.284;9.892;2023-04-01T05:01:47;7.23;;;1.37;;
20101;SDS011;10210;52.284;9.892;2023-04-01T05:04:13;2.60;;;1.10;;
20101;SDS011;10210;52.284;9.892;2023-04-01T05:06:39;3.30;;;1.00;;
20101;SDS011;10210;52.284;9.892;2023-04-01T05:09:05;5.00;;;1.10;;
20101;SDS011;10210;52.284;9.892;2023-04-01T05:11:30;4.23;;;1.10;;
20101;SDS011;10210;52.284;9.892;2023-04-01T05:13:56;3.50;;;1.17;;
20101;SDS011;10210;52.284;9.892;2023-04-01T05:16:22;4.30;;;1.27;;
20101;SDS011;10210;52.284;9.892;2023-04-01T05:18:47;2.30;;;1.23;;
20101;SDS011;10210;52.284;9.892;2023-04-01T05:21:13;5.70;;;1.50;;
20101;SDS011;10210;52.284;9.892;2023-04-01T05:23:40;3.47;;;1.30;;
20101;SDS011;10210;52.284;9.892;2023-04-01T05:26:07;5.23;;;1.23;;
20101;SDS011;10210;52.284;9.892;2023-04-01T05:28:35;4.87;;;1.50;;
20101;SDS011;10210;52.284;9.892;2023-04-01T05:31:02;5.17;;;1.47;;
20101;SDS011;10210;52.284;9.892;2023-04-01T05:33:30;5.23;;;1.63;;
20101;SDS011;10210;52.284;9.892;2023-04-01T05:35:56;4.57;;;1.67;;
20101;SDS011;10210;52.284;9.892;2023-04-01T05:38:33;6.23;;;1.90;;
20101;SDS011;10210;52.284;9.892;2023-04-01T05:41:00;7.43;;;1.93;;
20101;SDS011;10210;52.284;9.892;2023-04-01T05:43:27;4.27;;;1.67;;
20101;SDS011;10210;52.284;9.892;2023-04-01T05:45:55;2.83;;;1.50;;
20101;SDS011;10210;52.284;9.892;2023-04-01T05:48:21;4.47;;;1.50;;
20101;SDS011;10210;52.284;9.892;2023-04-01T05:50:47;7.43;;;1.60;;
20101;SDS011;10210;52.284;9.892;2023-04-01T05:53:13;4.67;;;1.43;;
20101;SDS011;10210;52.284;9.892;2023-04-01T05:55:38;8.50;;;1.83;;
20101;SDS011;10210;52.284;9.892;2023-04-01T05:58:04;5.93;;;1.80;;
20101;SDS011;10210;52.284;9.892;2023-04-01T06:00:30;8.63;;;2.00;;
20101;SDS011;10210;52.284;9.892;2023-04-01T06:02:57;5.37;;;2.00;;
20101;SDS011;10210;52.284;9.892;2023-04-01T06:05:27;5.60;;;2.00;;
20101;SDS011;10210;52.284;9.892;2023-04-01T06:07:59;4.80;;;1.93;;
20101;SDS011;10210;52.284;9.892;2023-04-01T06:19:29;5.70;;;1.80;;
20101;SDS011;10210;52.284;9.892;2023-04-01T06:25:17;5.13;;;1.60;;
20101;SDS011;10210;52.284;9.892;2023-04-01T06:31:34;7.10;;;1.90;;
20101;SDS011;10210;52.284;9.892;2023-04-01T06:57:58;6.70;;;1.87;;
20101;SDS011;10210;52.284;9.892;2023-04-01T07:00:32;4.23;;;2.00;;
20101;SDS011;10210;52.284;9.892;2023-04-01T07:03:16;6.83;;;1.87;;
20101;SDS011;10210;52.284;9.892;2023-04-01T07:05:58;6.20;;;1.70;;
20101;SDS011;10210;52.284;9.892;2023-04-01T07:08:29;6.00;;;1.80;;
20101;SDS011;10210;52.284;9.892;2023-04-01T07:11:02;4.60;;;1.87;;
20101;SDS011;10210;52.284;9.892;2023-04-01T07:13:36;5.03;;;1.60;;
20101;SDS011;10210;52.284;9.892;2023-04-01T07:22:00;4.80;;;1.43;;
20101;SDS011;10210;52.284;9.892;2023-04-01T07:24:39;4.80;;;1.40;;
20101;SDS011;10210;52.284;9.892;2023-04-01T07:27:10;3.27;;;1.40;;
20101;SDS011;10210;52.284;9.892;2023-04-01T07:29:38;5.38;;;1.60;;
20101;SDS011;10210;52.284;9.892;2023-04-01T07:32:07;5.97;;;1.63;;
20101;SDS011;10210;52.284;9.892;2023-04-01T07:35:07;6.77;;;1.60;;
20101;SDS011;10210;52.284;9.892;2023-04-01T07:47:31;4.67;;;1.43;;
20101;SDS011;10210;52.284;9.892;2023-04-01T07:50:26;4.33;;;1.50;;
20101;SDS011;10210;52.284;9.892;2023-04-01T07:53:06;4.80;;;1.80;;
20101;SDS011;10210;52.284;9.892;2023-04-01T08:01:13;6.90;;;1.50;;
20101;SDS011;10210;52.284;9.892;2023-04-01T08:25:56;2.63;;;1.20;;
20101;SDS011;10210;52.284;9.892;2023-04-01T08:28:37;4.63;;;1.40;;
20101;SDS011;10210;52.284;9.892;2023-04-01T08:31:33;4.17;;;1.27;;
20101;SDS011;10210;52.284;9.892;2023-04-01T08:34:21;4.47;;;1.40;;
20101;SDS011;10210;52.284;9.892;2023-04-01T08:37:11;2.60;;;1.37;;
20101;SDS011;10210;52.284;9.892;2023-04-01T08:39:50;5.23;;;1.33;;
20101;SDS011;10210;52.284;9.892;2023-04-01T08:54:09;2.70;;;1.20;;
20101;SDS011;10210;52.284;9.892;2023-04-01T08:56:58;7.77;;;1.53;;
20101;SDS011;10210;52.284;9.892;2023-04-01T09:03:00;4.37;;;1.10;;
20101;SDS011;10210;52.284;9.892;2023-04-01T09:14:53;4.20;;;1.40;;
20101;SDS011;10210;52.284;9.892;2023-04-01T09:37:21;3.53;;;0.90;;
20101;SDS011;10210;52.284;9.892;2023-04-01T09:46:25;2.67;;;1.00;;
20101;SDS011;10210;52.284;9.892;2023-04-01T09:52:03;3.07;;;0.70;;
20101;SDS011;10210;52.284;9.892;2023-04-01T10:01:10;1.13;;;1.00;;
20101;SDS011;10210;52.284;9.892;2023-04-01T10:11:15;1.63;;;0.90;;
20101;SDS011;10210;52.284;9.892;2023-04-01T10:20:10;3.13;;;0.97;;
20101;SDS011;10210;52.284;9.892;2023-04-01T10:28:51;3.43;;;1.00;;
20101;SDS011;10210;52.284;9.892;2023-04-01T10:41:32;0.93;;;0.70;;
20101;SDS011;10210;52.284;9.892;2023-04-01T10:44:48;2.50;;;0.80;;
20101;SDS011;10210;52.284;9.892;2023-04-01T10:54:14;5.17;;;1.27;;
20101;SDS011;10210;52.284;9.892;2023-04-01T11:00:30;2.87;;;1.10;;
20101;SDS011;10210;52.284;9.892;2023-04-01T11:03:24;4.87;;;1.10;;
20101;SDS011;10210;52.284;9.892;2023-04-01T11:09:31;2.03;;;1.10;;
20101;SDS011;10210;52.284;9.892;2023-04-01T11:15:30;2.30;;;0.80;;
20101;SDS011;10210;52.284;9.892;2023-04-01T11:39:05;3.10;;;1.40;;
20101;SDS011;10210;52.284;9.892;2023-04-01T11:44:49;3.27;;;1.10;;
20101;SDS011;10210;52.284;9.892;2023-04-01T11:50:52;4.03;;;1.10;;
20101;SDS011;10210;52.284;9.892;2023-04-01T11:54:01;3.77;;;1.40;;
20101;SDS011;10210;52.284;9.892;2023-04-01T12:18:26;1.50;;;1.07;;
20101;SDS011;10210;52.284;9.892;2023-04-01T12:21:37;1.63;;;1.00;;
20101;SDS011;10210;52.284;9.892;2023-04-01T12:27:29;1.27;;;0.70;;
20101;SDS011;10210;52.284;9.892;2023-04-01T12:34:00;1.83;;;1.10;;
20101;SDS011;10210;52.284;9.892;2023-04-01T12:42:35;2.40;;;0.90;;
20101;SDS011;10210;52.284;9.892;2023-04-01T12:51:34;4.13;;;1.60;;
20101;SDS011;10210;52.284;9.892;2023-04-01T13:00:12;5.10;;;1.70;;
20101;SDS011;10210;52.284;9.892;2023-04-01T13:06:17;5.40;;;1.80;;
20101;SDS011;10210;52.284;9.892;2023-04-01T13:08:53;6.67;;;1.87;;
20101;SDS011;10210;52.284;9.892;2023-04-01T13:12:00;5.70;;;1.70;;
20101;SDS011;10210;52.284;9.892;2023-04-01T13:29:47;3.60;;;1.50;;
20101;SDS011;10210;52.284;9.892;2023-04-01T13:35:28;3.00;;;1.40;;
20101;SDS011;10210;52.284;9.892;2023-04-01T13:41:30;2.77;;;1.37;;
20101;SDS011;10210;52.284;9.892;2023-04-01T13:44:19;3.97;;;1.30;;
20101;SDS011;10210;52.284;9.892;2023-04-01T13:50:53;2.97;;;1.20;;
20101;SDS011;10210;52.284;9.892;2023-04-01T14:06:27;2.00;;;0.93;;
20101;SDS011;10210;52.284;9.892;2023-04-01T14:17:54;3.87;;;1.23;;
20101;SDS011;10210;52.284;9.892;2023-04-01T14:26:35;4.97;;;2.10;;
20101;SDS011;10210;52.284;9.892;2023-04-01T14:32:27;4.67;;;2.20;;
20101;SDS011;10210;52.284;9.892;2023-04-01T14:35:30;3.37;;;1.60;;
20101;SDS011;10210;52.284;9.892;2023-04-01T14:41:48;2.33;;;1.30;;
20101;SDS011;10210;52.284;9.892;2023-04-01T14:50:55;4.73;;;1.90;;
20101;SDS011;10210;52.284;9.892;2023-04-01T14:53:36;5.60;;;1.80;;
20101;SDS011;10210;52.284;9.892;2023-04-01T14:56:10;2.97;;;1.53;;
20101;SDS011;10210;52.284;9.892;2023-04-01T14:58:57;1.90;;;1.30;;
20101;SDS011;10210;52.284;9.892;2023-04-01T15:01:32;1.87;;;1.33;;
20101;SDS011;10210;52.284;9.892;2023-04-01T15:04:29;2.83;;;1.30;;
20101;SDS011;10210;52.284;9.892;2023-04-01T15:12:52;2.00;;;1.30;;
20101;SDS011;10210;52.284;9.892;2023-04-01T15:38:10;2.60;;;1.40;;
20101;SDS011;10210;52.284;9.892;2023-04-01T15:40:56;3.23;;;1.60;;
20101;SDS011;10210;52.284;9.892;2023-04-01T15:52:06;1.53;;;1.10;;
20101;SDS011;10210;52.284;9.892;2023-04-01T15:55:19;1.50;;;1.07;;
20101;SDS011;10210;52.284;9.892;2023-04-01T16:04:14;1.10;;;1.00;;
20101;SDS011;10210;52.284;9.892;2023-04-01T16:07:11;2.57;;;1.27;;
20101;SDS011;10210;52.284;9.892;2023-04-01T16:12:47;1.80;;;1.10;;
20101;SDS011;10210;52.284;9.892;2023-04-01T16:19:08;1.37;;;1.10;;
20101;SDS011;10210;52.284;9.892;2023-04-01T16:34:45;3.33;;;1.30;;
20101;SDS011;10210;52.284;9.892;2023-04-01T16:37:32;1.97;;;1.30;;
20101;SDS011;10210;52.284;9.892;2023-04-01T16:54:51;2.03;;;0.93;;
20101;SDS011;10210;52.284;9.892;2023-04-01T17:00:27;1.17;;;0.90;;
20101;SDS011;10210;52.284;9.892;2023-04-01T17:08:27;1.73;;;1.20;;
20101;SDS011;10210;52.284;9.892;2023-04-01T17:11:13;2.37;;;1.00;;
20101;SDS011;10210;52.284;9.892;2023-04-01T17:16:51;2.80;;;1.23;;
20101;SDS011;10210;52.284;9.892;2023-04-01T17:25:32;1.87;;;1.30;;
20101;SDS011;10210;52.284;9.892;2023-04-01T17:28:34;1.57;;;1.10;;
20101;SDS011;10210;52.284;9.892;2023-04-01T17:31:20;1.93;;;1.30;;
20101;SDS011;10210;52.284;9.892;2023-04-01T17:36:56;1.73;;;1.03;;
20101;SDS011;10210;52.284;9.892;2023-04-01T17:45:49;2.63;;;1.57;;
20101;SDS011;10210;52.284;9.892;2023-04-01T17:51:25;2.97;;;1.50;;
20101;SDS011;10210;52.284;9.892;2023-04-01T17:54:32;3.77;;;1.50;;
20101;SDS011;10210;52.284;9.892;2023-04-01T17:57:54;1.80;;;1.30;;
20101;SDS011;10210;52.284;9.892;2023-04-01T18:00:38;3.13;;;1.40;;
20101;SDS011;10210;52.284;9.892;2023-04-01T18:03:45;3.00;;;1.30;;
20101;SDS011;10210;52.284;9.892;2023-04-01T18:18:32;1.70;;;1.23;;
20101;SDS011;10210;52.284;9.892;2023-04-01T18:21:34;1.70;;;1.30;;
20101;SDS011;10210;52.284;9.892;2023-04-01T18:29:48;2.80;;;1.53;;
20101;SDS011;10210;52.284;9.892;2023-04-01T18:36:13;2.00;;;1.30;;
20101;SDS011;10210;52.284;9.892;2023-04-01T18:41:30;1.80;;;1.20;;
20101;SDS011;10210;52.284;9.892;2023-04-01T18:50:24;2.77;;;1.47;;
20101;SDS011;10210;52.284;9.892;2023-04-01T18:54:05;3.97;;;1.57;;
20101;SDS011;10210;52.284;9.892;2023-04-01T18:56:11;3.87;;;1.40;;
20101;SDS011;10210;52.284;9.892;2023-04-01T18:59:04;3.53;;;1.43;;
20101;SDS011;10210;52.284;9.892;2023-04-01T19:01:43;2.87;;;1.80;;
20101;SDS011;10210;52.284;9.892;2023-04-01T19:04:31;3.93;;;1.90;;
20101;SDS011;10210;52.284;9.892;2023-04-01T19:10:07;4.07;;;2.00;;
20101;SDS011;10210;52.284;9.892;2023-04-01T19:12:43;4.50;;;2.10;;
20101;SDS011;10210;52.284;9.892;2023-04-01T19:21:11;6.23;;;2.53;;
20101;SDS011;10210;52.284;9.892;2023-04-01T19:27:00;5.17;;;2.23;;
20101;SDS011;10210;52.284;9.892;2023-04-01T19:35:28;6.00;;;2.40;;
20101;SDS011;10210;52.284;9.892;2023-04-01T19:38:31;5.53;;;2.20;;
20101;SDS011;10210;52.284;9.892;2023-04-01T19:41:20;4.73;;;2.10;;
20101;SDS011;10210;52.284;9.892;2023-04-01T19:56:04;5.80;;;2.40;;
20101;SDS011;10210;52.284;9.892;2023-04-01T19:59:02;5.80;;;2.30;;
20101;SDS011;10210;52.284;9.892;2023-04-01T20:04:22;5.37;;;2.50;;
20101;SDS011;10210;52.284;9.892;2023-04-01T20:09:58;7.47;;;2.70;;
20101;SDS011;10210;52.284;9.892;2023-04-01T20:12:49;6.77;;;2.80;;
20101;SDS011;10210;52.284;9.892;2023-04-01T20:15:30;6.53;;;2.70;;
20101;SDS011;10210;52.284;9.892;2023-04-01T20:20:57;5.13;;;2.50;;
20101;SDS011;10210;52.284;9.892;2023-04-01T20:23:40;6.67;;;2.90;;
20101;SDS011;10210;52.284;9.892;2023-04-01T20:26:21;9.67;;;2.80;;
20101;SDS011;10210;52.284;9.892;2023-04-01T20:31:38;6.27;;;2.70;;
20101;SDS011;10210;52.284;9.892;2023-04-01T20:37:00;5.93;;;2.70;;
20101;SDS011;10210;52.284;9.892;2023-04-01T20:43:19;6.17;;;2.50;;
20101;SDS011;10210;52.284;9.892;2023-04-01T20:46:16;5.43;;;2.53;;
20101;SDS011;10210;52.284;9.892;2023-04-01T20:49:23;5.03;;;2.40;;
20101;SDS011;10210;52.284;9.892;2023-04-01T20:57:27;6.47;;;2.60;;
20101;SDS011;10210;52.284;9.892;2023-04-01T21:07:18;7.83;;;2.90;;
20101;SDS011;10210;52.284;9.892;2023-04-01T21:09:31;6.80;;;2.83;;
20101;SDS011;10210;52.284;9.892;2023-04-01T21:12:24;7.43;;;3.23;;
20101;SDS011;10210;52.284;9.892;2023-04-01T21:15:09;10.43;;;3.43;;
20101;SDS011;10210;52.284;9.892;2023-04-01T21:17:58;10.17;;;3.70;;
20101;SDS011;10210;52.284;9.892;2023-04-01T21:26:41;11.13;;;4.10;;
20101;SDS011;10210;52.284;9.892;2023-04-01T21:33:36;10.13;;;4.20;;
20101;SDS011;10210;52.284;9.892;2023-04-01T21:36:33;9.73;;;3.90;;
20101;SDS011;10210;52.284;9.892;2023-04-01T21:42:26;13.70;;;4.10;;
20101;SDS011;10210;52.284;9.892;2023-04-01T21:48:44;10.30;;;4.33;;
20101;SDS011;10210;52.284;9.892;2023-04-01T21:55:06;8.67;;;3.60;;
20101;SDS011;10210;52.284;9.892;2023-04-01T22:18:43;11.00;;;3.80;;
20101;SDS011;10210;52.284;9.892;2023-04-01T22:21:36;9.80;;;3.53;;
20101;SDS011;10210;52.284;9.892;2023-04-01T22:24:20;10.33;;;3.80;;
20101;SDS011;10210;52.284;9.892;2023-04-01T22:44:04;11.87;;;4.27;;
20101;SDS011;10210;52.284;9.892;2023-04-01T22:46:56;11.03;;;3.90;;
20101;SDS011;10210;52.284;9.892;2023-04-01T22:49:53;9.77;;;4.03;;
20101;SDS011;10210;52.284;9.892;2023-04-01T22:52:33;10.17;;;4.00;;
20101;SDS011;10210;52.284;9.892;2023-04-01T22:55:15;11.17;;;4.37;;
20101;SDS011;10210;52.284;9.892;2023-04-01T23:00:40;11.17;;;4.10;;
20101;SDS011;10210;52.284;9.892;2023-04-01T23:03:22;11.40;;;4.40;;
20101;SDS011;10210;52.284;9.892;2023-04-01T23:05:57;12.40;;;4.23;;
20101;SDS011;10210;52.284;9.892;2023-04-01T23:17:22;14.10;;;5.10;;
20101;SDS011;10210;52.284;9.892;2023-04-01T23:20:47;13.00;;;4.77;;
20101;SDS011;10210;52.284;9.892;2023-04-01T23:23:30;15.83;;;5.30;;
20101;SDS011;10210;52.284;9.892;2023-04-01T23:26:17;12.50;;;4.60;;
20101;SDS011;10210;52.284;9.892;2023-04-01T23:28:58;15.20;;;5.23;;
20101;SDS011;10210;52.284;9.892;2023-04-01T23:31:28;16.50;;;5.00;;
20101;SDS011;10210;52.284;9.892;2023-04-01T23:36:38;15.37;;;5.40;;
20101;SDS011;10210;52.284;9.892;2023-04-01T23:39:28;13.47;;;4.60;;
20101;SDS011;10210;52.284;9.892;2023-04-01T23:42:03;12.87;;;4.67;;
20101;SDS011;10210;52.284;9.892;2023-04-01T23:44:50;12.07;;;4.57;;
20101;SDS011;10210;52.284;9.892;2023-04-01T23:47:25;16.37;;;4.70;;
20101;SDS011;10210;52.284;9.892;2023-04-01T23:49:58;13.53;;;4.57;;
20101;SDS011;10210;52.284;9.892;2023-04-01T23:52:31;13.17;;;4.70;;
20101;SDS011;10210;52.284;9.892;2023-04-01T23:55:12;14.33;;;4.70;;
20101;SDS011;10210;52.284;9.892;2023-04-01T23:58:00;13.50;;;4.50;;
